createdAt,value
2018-05-23T00:00:56.907Z,82.50
2018-05-23T00:03:24.359Z,81.70
2018-05-23T00:05:51.831Z,81.80
2018-05-23T00:08:20.063Z,81.30
2018-05-23T00:10:47.506Z,81.30
2018-05-23T00:13:14.952Z,81.30
2018-05-23T00:15:42.409Z,80.80
2018-05-23T00:18:09.838Z,81.40
2018-05-23T00:20:37.281Z,80.50
2018-05-23T00:23:04.719Z,81.20
2018-05-23T00:25:32.219Z,80.60
2018-05-23T00:27:59.656Z,80.90
2018-05-23T00:30:27.102Z,80.50
2018-05-23T00:32:54.547Z,79.60
2018-05-23T00:35:22.003Z,78.90
2018-05-23T00:37:49.461Z,77.50
2018-05-23T00:40:16.919Z,77.70
2018-05-23T00:42:44.386Z,77.50
2018-05-23T00:45:11.846Z,78.20
2018-05-23T00:47:40.066Z,75.50
2018-05-23T00:50:07.522Z,75.40
2018-05-23T00:52:34.980Z,75.90
2018-05-23T00:55:15.000Z,75.90
2018-05-23T00:57:42.447Z,75.20
2018-05-23T01:00:09.921Z,78.00
2018-05-23T01:02:37.358Z,80.30
2018-05-23T01:05:05.578Z,80.90
2018-05-23T01:07:33.035Z,80.90
2018-05-23T01:10:00.494Z,81.70
2018-05-23T01:12:28.715Z,83.10
2018-05-23T01:14:56.179Z,83.10
2018-05-23T01:17:25.078Z,84.00
2018-05-23T01:19:52.523Z,84.10
2018-05-23T01:22:20.765Z,82.60
2018-05-23T01:24:48.227Z,82.60
2018-05-23T01:27:16.431Z,81.90
2018-05-23T01:29:43.869Z,81.90
2018-05-23T01:32:11.326Z,81.70
2018-05-23T01:34:38.781Z,82.00
2018-05-23T01:37:06.241Z,81.10
2018-05-23T01:39:33.678Z,80.90
2018-05-23T01:42:01.135Z,80.50
2018-05-23T01:44:29.350Z,79.60
2018-05-23T01:46:56.786Z,79.60
2018-05-23T01:49:26.189Z,80.60
2018-05-23T01:51:53.646Z,80.80
2018-05-23T01:54:21.101Z,80.90
2018-05-23T01:56:48.567Z,81.10
2018-05-23T01:59:16.778Z,80.60
2018-05-23T02:01:44.256Z,80.70
2018-05-23T02:04:12.470Z,79.80
2018-05-23T02:06:39.926Z,79.80
2018-05-23T02:09:07.406Z,76.50
2018-05-23T02:11:35.638Z,80.40
2018-05-23T02:14:03.094Z,80.30
2018-05-23T02:16:31.018Z,81.10
2018-05-23T02:18:58.450Z,82.30
2018-05-23T02:21:25.904Z,83.10
2018-05-23T02:23:53.355Z,81.20
2018-05-23T02:26:20.827Z,79.90
2018-05-23T02:28:48.287Z,80.90
2018-05-23T02:31:15.739Z,79.50
2018-05-23T02:33:43.179Z,78.40
2018-05-23T02:36:10.667Z,78.50
2018-05-23T02:38:38.111Z,76.50
2018-05-23T02:41:05.549Z,78.00
2018-05-23T02:43:33.003Z,77.70
2018-05-23T02:46:01.270Z,77.20
2018-05-23T02:48:28.738Z,77.60
2018-05-23T02:50:56.186Z,77.10
2018-05-23T02:53:23.656Z,76.00
2018-05-23T02:55:51.119Z,75.70
2018-05-23T02:58:18.577Z,75.80
2018-05-23T03:00:46.045Z,74.80
2018-05-23T03:03:13.483Z,76.30
2018-05-23T03:05:40.954Z,75.80
2018-05-23T03:08:09.181Z,79.50
2018-05-23T03:10:36.632Z,79.50
2018-05-23T03:13:04.121Z,80.50
2018-05-23T03:15:31.567Z,81.70
2018-05-23T03:17:59.026Z,81.50
2018-05-23T03:20:26.481Z,81.20
2018-05-23T03:22:53.966Z,81.10
2018-05-23T03:25:22.210Z,81.20
2018-05-23T03:27:50.482Z,81.10
2018-05-23T03:30:18.687Z,81.30
2018-05-23T03:32:49.384Z,81.20
2018-05-23T03:35:16.839Z,79.50
2018-05-23T03:37:44.293Z,79.00
2018-05-23T03:40:11.755Z,78.50
2018-05-23T03:42:39.212Z,78.10
2018-05-23T03:45:06.674Z,77.60
2018-05-23T03:47:34.917Z,78.20
2018-05-23T03:50:02.346Z,78.20
2018-05-23T03:52:29.793Z,77.10
2018-05-23T03:54:57.266Z,76.10
2018-05-23T03:57:24.699Z,77.40
2018-05-23T04:00:03.980Z,76.70
2018-05-23T04:02:57.109Z,76.20
2018-05-23T04:05:36.414Z,76.70
2018-05-23T04:08:04.712Z,76.20
2018-05-23T04:10:32.186Z,76.20
2018-05-23T04:12:59.629Z,76.20
2018-05-23T04:15:27.108Z,76.90
2018-05-23T04:17:56.295Z,75.70
2018-05-23T04:20:23.745Z,75.70
2018-05-23T04:22:51.187Z,73.80
2018-05-23T04:25:18.634Z,74.50
2018-05-23T04:27:46.090Z,74.60
2018-05-23T04:30:13.543Z,75.30
2018-05-23T04:32:41.001Z,74.10
2018-05-23T04:35:08.466Z,74.30
2018-05-23T04:37:36.678Z,74.30
2018-05-23T04:40:04.142Z,74.20
2018-05-23T04:42:31.590Z,74.40
2018-05-23T04:44:59.029Z,73.60
2018-05-23T04:47:26.506Z,74.30
2018-05-23T04:49:53.959Z,74.20
2018-05-23T04:52:21.422Z,74.00
2018-05-23T04:54:48.910Z,73.50
2018-05-23T04:57:16.337Z,73.80
2018-05-23T04:59:43.792Z,73.50
2018-05-23T05:02:11.230Z,73.80
2018-05-23T05:04:38.687Z,73.30
2018-05-23T05:07:06.157Z,73.00
2018-05-23T05:09:34.393Z,73.50
2018-05-23T05:12:02.597Z,73.40
2018-05-23T05:14:30.069Z,73.30
2018-05-23T05:16:57.520Z,73.00
2018-05-23T05:19:24.982Z,73.10
2018-05-23T05:21:52.435Z,73.60
2018-05-23T05:24:19.889Z,72.30
2018-05-23T05:26:48.120Z,70.90
2018-05-23T05:29:15.579Z,70.90
2018-05-23T05:31:43.051Z,71.30
2018-05-23T05:34:10.503Z,70.40
2018-05-23T05:36:37.956Z,70.40
2018-05-23T05:39:05.441Z,70.10
2018-05-23T05:41:32.910Z,70.10
2018-05-23T05:44:00.470Z,70.40
2018-05-23T05:46:27.928Z,69.00
2018-05-23T05:48:55.429Z,68.60
2018-05-23T05:51:23.012Z,68.00
2018-05-23T05:53:51.210Z,67.50
2018-05-23T05:56:18.679Z,67.60
2018-05-23T05:58:46.903Z,65.70
2018-05-23T06:01:14.350Z,65.70
2018-05-23T06:03:41.816Z,63.70
2018-05-23T06:06:09.264Z,63.80
2018-05-23T06:08:36.721Z,63.10
2018-05-23T06:11:04.942Z,62.80
2018-05-23T06:13:32.393Z,62.80
2018-05-23T06:15:59.862Z,63.50
2018-05-23T06:18:27.322Z,61.70
2018-05-23T06:20:54.767Z,62.10
2018-05-23T06:23:22.227Z,61.80
2018-05-23T06:25:49.690Z,61.70
2018-05-23T06:28:17.138Z,61.50
2018-05-23T06:30:44.602Z,60.30
2018-05-23T06:33:12.054Z,59.50
2018-05-23T06:35:39.517Z,59.30
2018-05-23T06:38:07.728Z,59.10
2018-05-23T06:40:35.200Z,59.10
2018-05-23T06:43:02.634Z,58.50
2018-05-23T06:45:30.074Z,57.00
2018-05-23T06:47:57.523Z,56.30
2018-05-23T06:50:24.982Z,55.90
2018-05-23T06:52:52.442Z,56.00
2018-05-23T06:55:19.937Z,55.20
2018-05-23T06:57:47.446Z,54.90
2018-05-23T07:00:14.921Z,53.50
2018-05-23T07:02:42.362Z,53.70
2018-05-23T07:05:09.812Z,54.00
2018-05-23T07:07:37.285Z,54.20
2018-05-23T07:10:04.734Z,55.20
2018-05-23T07:12:35.418Z,53.30
2018-05-23T07:15:02.880Z,53.30
2018-05-23T07:17:30.342Z,53.40
2018-05-23T07:19:57.810Z,52.90
2018-05-23T07:22:25.506Z,52.70
2018-05-23T07:24:52.961Z,51.80
2018-05-23T07:27:21.002Z,52.20
2018-05-23T07:29:49.172Z,51.70
2018-05-23T07:32:17.162Z,50.80
2018-05-23T07:34:44.625Z,51.00
2018-05-23T07:37:12.069Z,50.60
2018-05-23T07:39:39.542Z,49.50
2018-05-23T07:42:06.998Z,49.10
2018-05-23T07:44:36.744Z,49.60
2018-05-23T07:47:04.183Z,48.50
2018-05-23T07:49:31.651Z,49.10
2018-05-23T07:51:59.094Z,49.10
2018-05-23T07:54:26.550Z,48.70
2018-05-23T07:56:53.996Z,48.70
2018-05-23T07:59:21.466Z,49.00
2018-05-23T08:01:49.699Z,48.70
2018-05-23T08:04:17.144Z,48.60
2018-05-23T08:06:45.420Z,48.30
2018-05-23T08:09:12.871Z,48.10
2018-05-23T08:11:41.084Z,48.80
2018-05-23T08:14:08.531Z,48.80
2018-05-23T08:16:35.979Z,47.10
2018-05-23T08:19:03.422Z,48.10
2018-05-23T08:21:30.882Z,49.20
2018-05-23T08:23:58.336Z,49.60
2018-05-23T08:26:26.562Z,48.60
2018-05-23T08:28:53.995Z,47.90
2018-05-23T08:31:21.454Z,48.60
2018-05-23T08:33:48.942Z,46.40
2018-05-23T08:36:16.444Z,45.80
2018-05-23T08:38:44.609Z,45.00
2018-05-23T08:41:12.067Z,45.00
2018-05-23T08:43:39.521Z,45.20
2018-05-23T08:46:07.848Z,44.10
2018-05-23T08:48:35.211Z,43.30
2018-05-23T08:51:02.643Z,42.00
2018-05-23T08:53:30.078Z,41.80
2018-05-23T08:55:57.537Z,41.90
2018-05-23T08:58:25.031Z,38.80
2018-05-23T09:00:52.506Z,38.90
2018-05-23T09:03:19.947Z,38.80
2018-05-23T09:05:47.386Z,40.50
2018-05-23T09:08:14.852Z,41.10
2018-05-23T09:10:42.298Z,42.10
2018-05-23T09:13:09.766Z,41.70
2018-05-23T09:15:37.959Z,39.40
2018-05-23T09:18:05.417Z,39.40
2018-05-23T09:20:32.856Z,40.00
2018-05-23T09:23:00.287Z,40.10
2018-05-23T09:25:27.780Z,40.30
2018-05-23T09:27:55.194Z,39.40
2018-05-23T09:30:22.646Z,37.40
2018-05-23T09:32:50.107Z,35.00
2018-05-23T09:35:17.562Z,37.30
2018-05-23T09:37:46.860Z,35.70
2018-05-23T09:40:14.342Z,35.70
2018-05-23T09:42:41.778Z,36.40
2018-05-23T09:45:09.263Z,36.00
2018-05-23T09:47:36.694Z,35.10
2018-05-23T09:50:04.153Z,35.80
2018-05-23T09:52:32.359Z,37.10
2018-05-23T09:54:59.890Z,36.90
2018-05-23T09:57:27.267Z,37.90
2018-05-23T09:59:54.709Z,36.50
2018-05-23T10:02:22.176Z,33.70
2018-05-23T10:04:49.633Z,33.10
2018-05-23T10:07:17.109Z,32.00
2018-05-23T10:09:45.034Z,32.70
2018-05-23T10:12:13.242Z,33.00
2018-05-23T10:14:40.698Z,32.20
2018-05-23T10:17:08.158Z,32.80
2018-05-23T10:19:35.598Z,31.90
2018-05-23T10:22:03.071Z,32.10
2018-05-23T10:24:30.581Z,29.90
2018-05-23T10:26:58.057Z,29.90
2018-05-23T10:29:26.262Z,29.30
2018-05-23T10:31:53.719Z,29.30
2018-05-23T10:34:21.279Z,30.30
2018-05-23T10:36:49.556Z,30.00
2018-05-23T10:39:17.064Z,30.00
2018-05-23T10:41:44.543Z,30.70
2018-05-23T10:44:12.847Z,28.30
2018-05-23T10:46:40.305Z,29.20
2018-05-23T10:49:07.749Z,31.50
2018-05-23T10:51:35.365Z,32.00
2018-05-23T10:54:02.808Z,33.10
2018-05-23T10:56:30.304Z,34.50
2018-05-23T10:58:57.798Z,35.00
2018-05-23T11:01:25.346Z,34.40
2018-05-23T11:03:52.778Z,35.70
2018-05-23T11:06:20.237Z,36.40
2018-05-23T11:08:47.706Z,37.20
2018-05-23T11:11:15.166Z,38.80
2018-05-23T11:13:42.607Z,39.30
2018-05-23T11:16:10.066Z,39.30
2018-05-23T11:18:37.531Z,39.30
2018-05-23T11:21:05.733Z,39.30
2018-05-23T11:23:33.190Z,39.30
2018-05-23T11:26:00.645Z,39.60
2018-05-23T11:28:29.034Z,38.40
2018-05-23T11:30:57.346Z,38.60
2018-05-23T11:33:24.795Z,38.60
2018-05-23T11:35:52.225Z,39.70
2018-05-23T11:38:19.674Z,39.70
2018-05-23T11:40:47.125Z,38.50
2018-05-23T11:43:14.561Z,37.80
2018-05-23T11:45:42.043Z,36.90
2018-05-23T11:48:09.479Z,37.50
2018-05-23T11:50:36.949Z,37.00
2018-05-23T11:53:05.161Z,36.90
2018-05-23T11:55:32.758Z,36.90
2018-05-23T11:58:00.338Z,38.10
2018-05-23T12:00:27.787Z,37.70
2018-05-23T12:02:55.220Z,37.10
2018-05-23T12:05:22.687Z,36.40
2018-05-23T12:07:50.136Z,37.10
2018-05-23T12:10:17.661Z,36.60
2018-05-23T12:12:45.052Z,37.70
2018-05-23T12:15:13.257Z,36.80
2018-05-23T12:17:40.713Z,36.80
2018-05-23T12:20:08.170Z,37.40
2018-05-23T12:22:35.623Z,37.20
2018-05-23T12:25:03.090Z,35.50
2018-05-23T12:27:30.542Z,36.30
2018-05-23T12:29:58.002Z,36.10
2018-05-23T12:32:25.443Z,37.30
2018-05-23T12:34:52.890Z,38.60
2018-05-23T12:37:20.348Z,38.60
2018-05-23T12:39:47.773Z,38.30
2018-05-23T12:42:15.230Z,37.90
2018-05-23T12:44:42.651Z,37.30
2018-05-23T12:47:10.106Z,37.60
2018-05-23T12:49:37.539Z,37.10
2018-05-23T12:52:04.999Z,37.30
2018-05-23T12:54:32.426Z,38.50
2018-05-23T12:56:59.884Z,38.20
2018-05-23T12:59:27.373Z,37.50
2018-05-23T13:01:55.603Z,36.40
2018-05-23T13:04:23.035Z,36.30
2018-05-23T13:06:50.487Z,36.20
2018-05-23T13:09:17.990Z,36.60
2018-05-23T13:11:45.455Z,36.50
2018-05-23T13:14:12.895Z,36.30
2018-05-23T13:16:40.446Z,36.30
2018-05-23T13:19:07.903Z,35.00
2018-05-23T13:21:35.383Z,36.10
2018-05-23T13:24:03.594Z,35.70
2018-05-23T13:26:31.049Z,35.70
2018-05-23T13:28:58.527Z,36.10
2018-05-23T13:31:25.974Z,35.70
2018-05-23T13:33:53.470Z,36.60
2018-05-23T13:36:20.968Z,37.20
2018-05-23T13:38:49.234Z,35.70
2018-05-23T13:41:16.681Z,35.60
2018-05-23T13:43:44.158Z,37.80
2018-05-23T13:46:11.630Z,38.60
2018-05-23T13:48:39.093Z,39.70
2018-05-23T13:51:07.325Z,40.40
2018-05-23T13:53:34.762Z,40.40
2018-05-23T13:56:02.217Z,39.60
2018-05-23T13:58:29.678Z,40.00
2018-05-23T14:00:57.133Z,39.40
2018-05-23T14:03:25.357Z,38.70
2018-05-23T14:05:52.884Z,38.70
2018-05-23T14:08:20.321Z,38.40
2018-05-23T14:10:47.767Z,37.50
2018-05-23T14:13:15.265Z,38.00
2018-05-23T14:15:43.479Z,38.40
2018-05-23T14:18:10.921Z,37.60
2018-05-23T14:20:39.266Z,37.70
2018-05-23T14:23:06.709Z,39.70
2018-05-23T14:25:34.162Z,40.50
2018-05-23T14:28:01.626Z,40.60
2018-05-23T14:30:29.355Z,40.60
2018-05-23T14:32:56.793Z,40.40
2018-05-23T14:35:24.246Z,39.60
2018-05-23T14:37:51.738Z,39.50
2018-05-23T14:40:19.955Z,38.00
2018-05-23T14:42:47.467Z,37.90
2018-05-23T14:45:14.901Z,38.10
2018-05-23T14:47:42.361Z,39.20
2018-05-23T14:50:09.877Z,39.80
2018-05-23T14:52:37.371Z,38.90
2018-05-23T14:55:04.895Z,39.60
2018-05-23T14:57:32.358Z,39.00
2018-05-23T14:59:59.810Z,39.80
2018-05-23T15:02:27.475Z,39.80
2018-05-23T15:04:55.688Z,40.50
2018-05-23T15:07:23.130Z,40.50
2018-05-23T15:09:50.599Z,39.90
2018-05-23T15:12:18.135Z,39.30
2018-05-23T15:14:45.620Z,39.50
2018-05-23T15:17:13.488Z,39.30
2018-05-23T15:19:41.741Z,37.60
2018-05-23T15:22:09.213Z,37.60
2018-05-23T15:24:36.665Z,37.20
2018-05-23T15:27:04.716Z,37.80
2018-05-23T15:29:32.903Z,38.80
2018-05-23T15:32:00.346Z,38.70
2018-05-23T15:34:27.865Z,38.40
2018-05-23T15:36:55.298Z,38.10
2018-05-23T15:39:22.738Z,38.40
2018-05-23T15:41:50.210Z,38.40
2018-05-23T15:44:17.634Z,37.70
2018-05-23T15:46:45.110Z,37.80
2018-05-23T15:49:12.574Z,37.50
2018-05-23T15:51:40.019Z,38.70
2018-05-23T15:54:08.244Z,37.90
2018-05-23T15:56:35.766Z,37.90
2018-05-23T15:59:03.194Z,39.00
2018-05-23T16:01:30.658Z,39.20
2018-05-23T16:03:58.111Z,39.10
2018-05-23T16:06:25.596Z,39.30
2018-05-23T16:08:53.063Z,39.80
2018-05-23T16:11:21.272Z,39.30
2018-05-23T16:13:48.782Z,39.30
2018-05-23T16:16:16.231Z,39.30
2018-05-23T16:18:43.737Z,39.20
2018-05-23T16:21:11.970Z,38.60
2018-05-23T16:23:39.414Z,38.70
2018-05-23T16:26:06.878Z,38.80
2018-05-23T16:28:35.150Z,38.80
2018-05-23T16:31:03.442Z,38.60
2018-05-23T16:33:30.889Z,38.60
2018-05-23T16:35:58.329Z,37.60
2018-05-23T16:38:25.790Z,38.10
2018-05-23T16:40:53.271Z,37.90
2018-05-23T16:43:20.782Z,38.00
2018-05-23T16:45:48.217Z,38.10
2018-05-23T16:48:15.675Z,38.50
2018-05-23T16:50:43.113Z,38.70
2018-05-23T16:53:10.550Z,39.00
2018-05-23T16:55:37.998Z,39.70
2018-05-23T16:58:05.455Z,40.20
2018-05-23T17:00:32.907Z,40.40
2018-05-23T17:03:00.353Z,40.60
2018-05-23T17:05:28.596Z,41.20
2018-05-23T17:07:56.847Z,41.40
2018-05-23T17:10:24.307Z,41.30
2018-05-23T17:12:51.781Z,42.00
2018-05-23T17:15:21.099Z,43.10
2018-05-23T17:17:48.609Z,43.10
2018-05-23T17:20:16.814Z,43.20
2018-05-23T17:22:44.278Z,43.20
2018-05-23T17:25:11.724Z,43.30
2018-05-23T17:27:39.185Z,43.60
2018-05-23T17:30:06.628Z,43.80
2018-05-23T17:32:34.101Z,44.00
2018-05-23T17:35:02.311Z,44.20
2018-05-23T17:37:29.827Z,44.20
2018-05-23T17:39:57.377Z,44.30
2018-05-23T17:42:24.810Z,44.60
2018-05-23T17:44:52.255Z,44.80
2018-05-23T17:47:19.876Z,45.20
2018-05-23T17:49:47.340Z,45.20
2018-05-23T17:52:14.782Z,45.40
2018-05-23T17:54:42.271Z,45.50
2018-05-23T17:57:09.702Z,45.40
2018-05-23T17:59:37.161Z,45.10
2018-05-23T18:02:04.605Z,45.10
2018-05-23T18:04:32.069Z,44.70
2018-05-23T18:07:00.287Z,44.40
2018-05-23T18:09:27.750Z,44.30
2018-05-23T18:11:55.202Z,44.60
2018-05-23T18:14:22.659Z,44.60
2018-05-23T18:16:50.203Z,44.40
2018-05-23T18:19:17.577Z,45.10
2018-05-23T18:21:45.037Z,44.30
2018-05-23T18:24:12.493Z,44.60
2018-05-23T18:26:39.938Z,44.40
2018-05-23T18:29:08.140Z,44.50
2018-05-23T18:31:36.343Z,44.10
2018-05-23T18:34:03.798Z,44.10
2018-05-23T18:36:31.248Z,44.40
2018-05-23T18:38:58.767Z,44.60
2018-05-23T18:41:26.240Z,44.50
2018-05-23T18:43:53.691Z,44.80
2018-05-23T18:46:21.186Z,44.80
2018-05-23T18:48:48.649Z,44.50
2018-05-23T18:51:16.099Z,44.80
2018-05-23T18:53:43.629Z,45.30
2018-05-23T18:56:11.068Z,45.90
2018-05-23T18:58:38.516Z,46.70
2018-05-23T19:01:05.972Z,47.10
2018-05-23T19:03:33.406Z,47.40
2018-05-23T19:06:00.899Z,47.40
2018-05-23T19:08:29.130Z,47.40
2018-05-23T19:10:56.585Z,47.60
2018-05-23T19:13:24.032Z,48.60
2018-05-23T19:15:51.638Z,48.20
2018-05-23T19:18:19.088Z,48.60
2018-05-23T19:20:47.291Z,49.40
2018-05-23T19:23:15.498Z,49.10
2018-05-23T19:25:42.971Z,49.10
2018-05-23T19:28:10.431Z,49.10
2018-05-23T19:30:37.877Z,48.90
2018-05-23T19:33:06.084Z,49.40
2018-05-23T19:35:33.522Z,49.30
2018-05-23T19:38:01.031Z,49.80
2018-05-23T19:40:28.517Z,50.10
2018-05-23T19:42:55.977Z,50.20
2018-05-23T19:45:23.430Z,50.40
2018-05-23T19:47:50.889Z,50.20
2018-05-23T19:50:18.344Z,50.70
2018-05-23T19:52:46.598Z,50.60
2018-05-23T19:55:14.004Z,50.60
2018-05-23T19:57:41.482Z,50.60
2018-05-23T20:02:42.830Z,51.10
2018-05-23T20:05:10.267Z,51.30
2018-05-23T20:07:38.467Z,52.60
2018-05-23T20:10:05.914Z,52.60
2018-05-23T20:12:33.370Z,53.10
2018-05-23T20:15:00.834Z,53.50
2018-05-23T20:17:28.276Z,54.00
2018-05-23T20:19:55.765Z,54.30
2018-05-23T20:22:23.251Z,58.50
2018-05-23T20:24:50.704Z,58.80
2018-05-23T20:27:18.153Z,61.50
2018-05-23T20:29:45.605Z,69.40
2018-05-23T20:32:13.046Z,67.30
2018-05-23T20:34:40.490Z,72.70
2018-05-23T20:37:07.940Z,77.60
2018-05-23T20:39:35.452Z,76.60
2018-05-23T20:42:03.661Z,81.10
2018-05-23T20:44:31.882Z,81.50
2018-05-23T20:46:59.325Z,81.50
2018-05-23T20:49:26.801Z,78.90
2018-05-23T20:51:55.010Z,84.80
2018-05-23T20:54:22.466Z,84.60
2018-05-23T20:56:49.926Z,81.90
2018-05-23T20:59:17.380Z,84.20
2018-05-23T21:01:45.585Z,82.70
2018-05-23T21:04:13.086Z,82.70
2018-05-23T21:06:41.298Z,86.50
2018-05-23T21:09:08.748Z,85.90
2018-05-23T21:11:36.248Z,90.00
2018-05-23T21:14:03.669Z,89.20
2018-05-23T21:16:31.893Z,89.60
2018-05-23T21:18:59.355Z,89.50
2018-05-23T21:21:26.798Z,88.60
2018-05-23T21:23:54.262Z,86.70
2018-05-23T21:26:22.484Z,86.30
2018-05-23T21:28:49.952Z,86.30
2018-05-23T21:31:17.410Z,86.20
2018-05-23T21:33:45.626Z,88.70
2018-05-23T21:36:13.057Z,88.60
2018-05-23T21:38:40.538Z,84.70
2018-05-23T21:41:07.951Z,86.90
2018-05-23T21:43:35.425Z,86.90
2018-05-23T21:46:02.861Z,85.40
2018-05-23T21:48:30.308Z,86.00
2018-05-23T21:50:57.768Z,88.10
2018-05-23T21:53:25.198Z,83.90
2018-05-23T21:55:52.658Z,88.50
2018-05-23T21:58:20.861Z,90.20
2018-05-23T22:00:48.308Z,90.10
2018-05-23T22:03:15.747Z,89.00
2018-05-23T22:05:43.191Z,88.30
2018-05-23T22:08:10.662Z,90.80
2018-05-23T22:10:38.874Z,90.30
2018-05-23T22:13:06.310Z,90.30
2018-05-23T22:15:33.749Z,90.70
2018-05-23T22:18:01.186Z,90.40
2018-05-23T22:20:29.399Z,86.70
2018-05-23T22:22:56.850Z,86.70
2018-05-23T22:25:24.303Z,87.80
2018-05-23T22:27:51.733Z,88.40
2018-05-23T22:30:19.185Z,87.00
2018-05-23T22:32:46.633Z,86.20
2018-05-23T22:35:14.082Z,87.80
2018-05-23T22:37:41.510Z,87.50
2018-05-23T22:40:08.961Z,86.40
2018-05-23T22:42:36.409Z,89.30
2018-05-23T22:45:03.866Z,88.50
2018-05-23T22:47:31.310Z,87.50
2018-05-23T22:49:59.518Z,87.70
2018-05-23T22:52:26.953Z,87.70
2018-05-23T22:54:54.393Z,87.90
2018-05-23T22:57:21.852Z,87.60
2018-05-23T22:59:49.283Z,89.00
2018-05-23T23:02:16.730Z,87.60
2018-05-23T23:04:44.171Z,88.20
2018-05-23T23:07:11.617Z,87.70
2018-05-23T23:09:39.068Z,88.70
2018-05-23T23:12:06.522Z,88.10
2018-05-23T23:14:34.722Z,89.30
2018-05-23T23:17:02.927Z,87.20
2018-05-23T23:19:30.364Z,87.20
2018-05-23T23:21:57.807Z,87.30
2018-05-23T23:24:25.241Z,86.60
2018-05-23T23:26:52.711Z,87.50
2018-05-23T23:29:20.146Z,87.10
2018-05-23T23:31:47.599Z,86.40
2018-05-23T23:34:15.052Z,85.50
2018-05-23T23:36:42.523Z,87.50
2018-05-23T23:39:10.726Z,87.90
2018-05-23T23:41:38.166Z,87.80
2018-05-23T23:44:05.613Z,88.10
2018-05-23T23:46:33.054Z,89.80
2018-05-23T23:49:00.500Z,87.60
2018-05-23T23:51:27.979Z,89.00
2018-05-23T23:53:55.431Z,90.00
2018-05-23T23:56:22.870Z,89.20
2018-05-23T23:58:51.067Z,89.10
